sensor_id;sensor_type;location;lat;lon;timestamp;P1;durP1;ratioP1;P2;durP2;ratioP2
38972;SDS011;25333;50.762;4.470;2023-09-07T00:01:28;3.50;;;2.35;;
38972;SDS011;25333;50.762;4.470;2023-09-07T00:03:54;4.82;;;2.42;;
38972;SDS011;25333;50.762;4.470;2023-09-07T00:06:20;3.97;;;2.30;;
38972;SDS011;25333;50.762;4.470;2023-09-07T00:08:46;5.35;;;2.80;;
38972;SDS011;25333;50.762;4.470;2023-09-07T00:11:11;3.73;;;2.50;;
38972;SDS011;25333;50.762;4.470;2023-09-07T00:13:37;3.57;;;3.07;;
38972;SDS011;25333;50.762;4.470;2023-09-07T00:16:03;5.93;;;2.60;;
38972;SDS011;25333;50.762;4.470;2023-09-07T00:18:30;3.78;;;2.33;;
38972;SDS011;25333;50.762;4.470;2023-09-07T00:20:56;3.38;;;2.47;;
38972;SDS011;25333;50.762;4.470;2023-09-07T00:23:21;3.28;;;1.92;;
38972;SDS011;25333;50.762;4.470;2023-09-07T00:25:47;3.57;;;2.20;;
38972;SDS011;25333;50.762;4.470;2023-09-07T00:28:13;5.70;;;2.45;;
38972;SDS011;25333;50.762;4.470;2023-09-07T00:30:39;4.30;;;2.20;;
38972;SDS011;25333;50.762;4.470;2023-09-07T00:33:05;4.28;;;2.78;;
38972;SDS011;25333;50.762;4.470;2023-09-07T00:35:31;5.10;;;2.42;;
38972;SDS011;25333;50.762;4.470;2023-09-07T00:37:56;4.37;;;2.60;;
38972;SDS011;25333;50.762;4.470;2023-09-07T00:40:22;4.37;;;1.80;;
38972;SDS011;25333;50.762;4.470;2023-09-07T00:42:48;3.70;;;2.13;;
38972;SDS011;25333;50.762;4.470;2023-09-07T00:45:14;3.78;;;2.47;;
38972;SDS011;25333;50.762;4.470;2023-09-07T00:47:40;4.18;;;2.28;;
38972;SDS011;25333;50.762;4.470;2023-09-07T00:50:06;5.43;;;2.70;;
38972;SDS011;25333;50.762;4.470;2023-09-07T00:52:32;3.72;;;2.40;;
38972;SDS011;25333;50.762;4.470;2023-09-07T00:54:59;3.95;;;2.22;;
38972;SDS011;25333;50.762;4.470;2023-09-07T00:57:27;4.25;;;2.47;;
38972;SDS011;25333;50.762;4.470;2023-09-07T00:59:53;3.47;;;1.90;;
38972;SDS011;25333;50.762;4.470;2023-09-07T01:02:19;4.47;;;2.67;;
38972;SDS011;25333;50.762;4.470;2023-09-07T01:04:45;4.10;;;1.70;;
38972;SDS011;25333;50.762;4.470;2023-09-07T01:07:26;5.17;;;2.63;;
38972;SDS011;25333;50.762;4.470;2023-09-07T01:09:59;4.40;;;1.80;;
38972;SDS011;25333;50.762;4.470;2023-09-07T01:12:25;3.23;;;2.23;;
38972;SDS011;25333;50.762;4.470;2023-09-07T01:14:52;3.90;;;2.67;;
38972;SDS011;25333;50.762;4.470;2023-09-07T01:17:18;3.80;;;2.20;;
38972;SDS011;25333;50.762;4.470;2023-09-07T01:19:46;3.80;;;2.38;;
38972;SDS011;25333;50.762;4.470;2023-09-07T01:22:15;4.78;;;2.33;;
38972;SDS011;25333;50.762;4.470;2023-09-07T01:24:47;3.65;;;2.45;;
38972;SDS011;25333;50.762;4.470;2023-09-07T01:27:13;5.30;;;2.93;;
38972;SDS011;25333;50.762;4.470;2023-09-07T01:29:39;5.72;;;2.95;;
38972;SDS011;25333;50.762;4.470;2023-09-07T01:32:05;3.80;;;2.15;;
38972;SDS011;25333;50.762;4.470;2023-09-07T01:34:31;4.07;;;2.28;;
38972;SDS011;25333;50.762;4.470;2023-09-07T01:36:57;6.03;;;2.08;;
38972;SDS011;25333;50.762;4.470;2023-09-07T01:39:23;4.93;;;2.73;;
38972;SDS011;25333;50.762;4.470;2023-09-07T01:41:49;5.00;;;2.63;;
38972;SDS011;25333;50.762;4.470;2023-09-07T01:44:14;3.88;;;2.30;;
38972;SDS011;25333;50.762;4.470;2023-09-07T01:46:40;5.40;;;2.03;;
38972;SDS011;25333;50.762;4.470;2023-09-07T01:49:06;3.67;;;2.90;;
38972;SDS011;25333;50.762;4.470;2023-09-07T01:51:31;4.60;;;2.47;;
38972;SDS011;25333;50.762;4.470;2023-09-07T01:53:57;4.13;;;2.72;;
38972;SDS011;25333;50.762;4.470;2023-09-07T01:56:23;5.18;;;2.97;;
38972;SDS011;25333;50.762;4.470;2023-09-07T01:58:48;5.43;;;2.70;;
38972;SDS011;25333;50.762;4.470;2023-09-07T02:01:27;5.07;;;2.57;;
38972;SDS011;25333;50.762;4.470;2023-09-07T02:04:06;5.65;;;2.53;;
38972;SDS011;25333;50.762;4.470;2023-09-07T02:06:35;4.32;;;2.65;;
38972;SDS011;25333;50.762;4.470;2023-09-07T02:09:02;4.53;;;2.45;;
38972;SDS011;25333;50.762;4.470;2023-09-07T02:11:29;4.18;;;2.28;;
38972;SDS011;25333;50.762;4.470;2023-09-07T02:13:55;3.65;;;3.00;;
38972;SDS011;25333;50.762;4.470;2023-09-07T02:16:20;5.80;;;2.53;;
38972;SDS011;25333;50.762;4.470;2023-09-07T02:18:48;3.78;;;2.67;;
38972;SDS011;25333;50.762;4.470;2023-09-07T02:21:16;4.03;;;2.80;;
38972;SDS011;25333;50.762;4.470;2023-09-07T02:23:41;4.85;;;2.60;;
38972;SDS011;25333;50.762;4.470;2023-09-07T02:26:07;4.60;;;2.37;;
38972;SDS011;25333;50.762;4.470;2023-09-07T02:28:33;4.07;;;2.50;;
38972;SDS011;25333;50.762;4.470;2023-09-07T02:31:05;4.55;;;2.83;;
38972;SDS011;25333;50.762;4.470;2023-09-07T02:33:31;4.03;;;2.70;;
38972;SDS011;25333;50.762;4.470;2023-09-07T02:35:57;5.45;;;2.80;;
38972;SDS011;25333;50.762;4.470;2023-09-07T02:38:25;3.70;;;2.78;;
38972;SDS011;25333;50.762;4.470;2023-09-07T02:40:50;6.20;;;2.25;;
38972;SDS011;25333;50.762;4.470;2023-09-07T02:43:16;3.57;;;2.43;;
38972;SDS011;25333;50.762;4.470;2023-09-07T02:45:42;3.42;;;2.35;;
38972;SDS011;25333;50.762;4.470;2023-09-07T02:48:07;6.05;;;2.78;;
38972;SDS011;25333;50.762;4.470;2023-09-07T02:50:38;9.27;;;2.78;;
38972;SDS011;25333;50.762;4.470;2023-09-07T02:53:04;3.90;;;2.63;;
38972;SDS011;25333;50.762;4.470;2023-09-07T02:55:30;3.37;;;1.83;;
38972;SDS011;25333;50.762;4.470;2023-09-07T02:57:56;4.13;;;2.10;;
38972;SDS011;25333;50.762;4.470;2023-09-07T03:00:23;4.82;;;2.58;;
38972;SDS011;25333;50.762;4.470;2023-09-07T03:02:49;3.53;;;2.70;;
38972;SDS011;25333;50.762;4.470;2023-09-07T03:05:18;3.60;;;2.65;;
38972;SDS011;25333;50.762;4.470;2023-09-07T03:07:44;4.60;;;2.85;;
38972;SDS011;25333;50.762;4.470;2023-09-07T03:10:11;4.43;;;2.47;;
38972;SDS011;25333;50.762;4.470;2023-09-07T03:12:38;3.33;;;2.05;;
38972;SDS011;25333;50.762;4.470;2023-09-07T03:15:15;3.80;;;2.28;;
38972;SDS011;25333;50.762;4.470;2023-09-07T03:17:41;4.30;;;3.13;;
38972;SDS011;25333;50.762;4.470;2023-09-07T03:20:10;3.23;;;2.47;;
38972;SDS011;25333;50.762;4.470;2023-09-07T03:23:02;6.10;;;2.70;;
38972;SDS011;25333;50.762;4.470;2023-09-07T03:25:48;3.80;;;2.75;;
38972;SDS011;25333;50.762;4.470;2023-09-07T03:28:36;3.97;;;2.70;;
38972;SDS011;25333;50.762;4.470;2023-09-07T03:31:09;3.53;;;2.67;;
38972;SDS011;25333;50.762;4.470;2023-09-07T03:34:04;4.40;;;3.00;;
38972;SDS011;25333;50.762;4.470;2023-09-07T03:36:50;4.50;;;2.50;;
38972;SDS011;25333;50.762;4.470;2023-09-07T03:39:21;4.05;;;2.67;;
38972;SDS011;25333;50.762;4.470;2023-09-07T03:42:12;3.63;;;2.40;;
38972;SDS011;25333;50.762;4.470;2023-09-07T03:47:50;5.72;;;2.45;;
38972;SDS011;25333;50.762;4.470;2023-09-07T03:53:46;3.10;;;1.98;;
38972;SDS011;25333;50.762;4.470;2023-09-07T03:56:27;6.60;;;3.13;;
38972;SDS011;25333;50.762;4.470;2023-09-07T03:59:52;3.92;;;2.60;;
38972;SDS011;25333;50.762;4.470;2023-09-07T04:03:12;4.10;;;2.80;;
38972;SDS011;25333;50.762;4.470;2023-09-07T04:09:07;4.72;;;2.92;;
38972;SDS011;25333;50.762;4.470;2023-09-07T04:12:30;4.43;;;3.10;;
38972;SDS011;25333;50.762;4.470;2023-09-07T04:18:40;4.65;;;2.67;;
38972;SDS011;25333;50.762;4.470;2023-09-07T04:21:09;4.85;;;3.63;;
38972;SDS011;25333;50.762;4.470;2023-09-07T04:27:13;5.75;;;2.35;;
38972;SDS011;25333;50.762;4.470;2023-09-07T04:29:51;3.97;;;2.40;;
38972;SDS011;25333;50.762;4.470;2023-09-07T04:39:46;5.35;;;2.50;;
38972;SDS011;25333;50.762;4.470;2023-09-07T04:46:38;9.15;;;3.95;;
38972;SDS011;25333;50.762;4.470;2023-09-07T04:52:59;5.20;;;3.40;;
38972;SDS011;25333;50.762;4.470;2023-09-07T04:56:29;4.90;;;3.00;;
38972;SDS011;25333;50.762;4.470;2023-09-07T04:59:24;5.10;;;3.23;;
38972;SDS011;25333;50.762;4.470;2023-09-07T05:01:58;4.60;;;2.73;;
38972;SDS011;25333;50.762;4.470;2023-09-07T05:05:28;4.68;;;2.30;;
38972;SDS011;25333;50.762;4.470;2023-09-07T05:08:30;8.15;;;3.65;;
38972;SDS011;25333;50.762;4.470;2023-09-07T05:11:00;4.50;;;2.37;;
38972;SDS011;25333;50.762;4.470;2023-09-07T05:47:25;6.00;;;3.70;;
38972;SDS011;25333;50.762;4.470;2023-09-07T05:53:30;3.67;;;2.85;;
38972;SDS011;25333;50.762;4.470;2023-09-07T06:02:22;5.32;;;3.92;;
38972;SDS011;25333;50.762;4.470;2023-09-07T06:04:50;4.93;;;3.60;;
38972;SDS011;25333;50.762;4.470;2023-09-07T06:07:36;4.72;;;3.00;;
38972;SDS011;25333;50.762;4.470;2023-09-07T06:10:02;4.55;;;2.88;;
38972;SDS011;25333;50.762;4.470;2023-09-07T06:12:35;4.20;;;3.15;;
38972;SDS011;25333;50.762;4.470;2023-09-07T06:15:17;3.80;;;2.80;;
38972;SDS011;25333;50.762;4.470;2023-09-07T06:17:47;6.90;;;3.93;;
38972;SDS011;25333;50.762;4.470;2023-09-07T06:23:06;4.97;;;3.85;;
38972;SDS011;25333;50.762;4.470;2023-09-07T06:26:17;6.95;;;4.43;;
38972;SDS011;25333;50.762;4.470;2023-09-07T06:29:18;5.85;;;3.10;;
38972;SDS011;25333;50.762;4.470;2023-09-07T06:31:47;5.43;;;3.87;;
38972;SDS011;25333;50.762;4.470;2023-09-07T06:35:05;4.90;;;3.22;;
38972;SDS011;25333;50.762;4.470;2023-09-07T06:38:07;6.35;;;3.47;;
38972;SDS011;25333;50.762;4.470;2023-09-07T06:40:38;5.50;;;3.78;;
38972;SDS011;25333;50.762;4.470;2023-09-07T06:43:57;6.83;;;3.93;;
38972;SDS011;25333;50.762;4.470;2023-09-07T06:47:11;5.60;;;3.92;;
38972;SDS011;25333;50.762;4.470;2023-09-07T06:50:16;6.35;;;4.40;;
38972;SDS011;25333;50.762;4.470;2023-09-07T06:53:23;9.48;;;5.13;;
38972;SDS011;25333;50.762;4.470;2023-09-07T06:56:09;9.85;;;5.93;;
38972;SDS011;25333;50.762;4.470;2023-09-07T06:58:36;6.82;;;5.18;;
38972;SDS011;25333;50.762;4.470;2023-09-07T07:01:32;7.68;;;5.68;;
38972;SDS011;25333;50.762;4.470;2023-09-07T07:04:00;7.10;;;6.07;;
38972;SDS011;25333;50.762;4.470;2023-09-07T07:06:25;8.70;;;6.35;;
38972;SDS011;25333;50.762;4.470;2023-09-07T07:08:54;10.27;;;7.53;;
38972;SDS011;25333;50.762;4.470;2023-09-07T07:11:42;8.77;;;6.18;;
38972;SDS011;25333;50.762;4.470;2023-09-07T07:14:31;9.07;;;5.00;;
38972;SDS011;25333;50.762;4.470;2023-09-07T07:17:22;6.93;;;5.00;;
38972;SDS011;25333;50.762;4.470;2023-09-07T07:19:51;6.68;;;4.85;;
38972;SDS011;25333;50.762;4.470;2023-09-07T07:22:17;6.95;;;6.25;;
38972;SDS011;25333;50.762;4.470;2023-09-07T07:24:43;6.88;;;5.05;;
38972;SDS011;25333;50.762;4.470;2023-09-07T07:27:08;6.60;;;4.83;;
38972;SDS011;25333;50.762;4.470;2023-09-07T07:29:36;6.80;;;4.57;;
38972;SDS011;25333;50.762;4.470;2023-09-07T07:32:02;8.52;;;5.57;;
38972;SDS011;25333;50.762;4.470;2023-09-07T07:34:28;5.83;;;4.00;;
38972;SDS011;25333;50.762;4.470;2023-09-07T07:36:54;7.45;;;5.10;;
38972;SDS011;25333;50.762;4.470;2023-09-07T07:39:20;6.78;;;4.80;;
38972;SDS011;25333;50.762;4.470;2023-09-07T07:41:45;7.15;;;4.90;;
38972;SDS011;25333;50.762;4.470;2023-09-07T07:44:11;5.53;;;4.40;;
38972;SDS011;25333;50.762;4.470;2023-09-07T07:46:37;7.17;;;4.50;;
38972;SDS011;25333;50.762;4.470;2023-09-07T07:49:03;6.90;;;5.07;;
38972;SDS011;25333;50.762;4.470;2023-09-07T07:51:29;6.18;;;4.32;;
38972;SDS011;25333;50.762;4.470;2023-09-07T07:53:54;5.03;;;3.85;;
38972;SDS011;25333;50.762;4.470;2023-09-07T07:56:23;7.15;;;4.95;;
38972;SDS011;25333;50.762;4.470;2023-09-07T07:58:50;5.65;;;4.03;;
38972;SDS011;25333;50.762;4.470;2023-09-07T08:01:16;4.33;;;3.43;;
38972;SDS011;25333;50.762;4.470;2023-09-07T08:03:43;5.65;;;3.13;;
38972;SDS011;25333;50.762;4.470;2023-09-07T08:06:09;4.50;;;3.55;;
38972;SDS011;25333;50.762;4.470;2023-09-07T08:08:37;5.40;;;3.05;;
38972;SDS011;25333;50.762;4.470;2023-09-07T08:11:04;6.30;;;3.50;;
38972;SDS011;25333;50.762;4.470;2023-09-07T08:13:36;4.97;;;3.45;;
38972;SDS011;25333;50.762;4.470;2023-09-07T08:16:02;5.65;;;4.30;;
38972;SDS011;25333;50.762;4.470;2023-09-07T08:18:29;4.18;;;3.25;;
38972;SDS011;25333;50.762;4.470;2023-09-07T08:20:57;5.68;;;3.80;;
38972;SDS011;25333;50.762;4.470;2023-09-07T08:23:28;5.60;;;3.53;;
38972;SDS011;25333;50.762;4.470;2023-09-07T08:26:40;5.72;;;3.67;;
38972;SDS011;25333;50.762;4.470;2023-09-07T08:29:22;4.00;;;3.25;;
38972;SDS011;25333;50.762;4.470;2023-09-07T08:31:52;5.60;;;3.30;;
38972;SDS011;25333;50.762;4.470;2023-09-07T08:34:40;4.30;;;3.20;;
38972;SDS011;25333;50.762;4.470;2023-09-07T08:37:07;5.80;;;3.13;;
38972;SDS011;25333;50.762;4.470;2023-09-07T08:39:34;6.72;;;3.80;;
38972;SDS011;25333;50.762;4.470;2023-09-07T08:42:00;6.32;;;3.75;;
38972;SDS011;25333;50.762;4.470;2023-09-07T08:44:29;5.37;;;3.07;;
38972;SDS011;25333;50.762;4.470;2023-09-07T08:46:59;5.20;;;3.50;;
38972;SDS011;25333;50.762;4.470;2023-09-07T08:49:29;5.20;;;3.50;;
38972;SDS011;25333;50.762;4.470;2023-09-07T08:51:57;5.23;;;3.17;;
38972;SDS011;25333;50.762;4.470;2023-09-07T08:54:39;7.00;;;3.80;;
38972;SDS011;25333;50.762;4.470;2023-09-07T08:57:23;3.90;;;2.40;;
38972;SDS011;25333;50.762;4.470;2023-09-07T08:59:52;3.63;;;2.67;;
38972;SDS011;25333;50.762;4.470;2023-09-07T09:02:18;4.47;;;2.85;;
38972;SDS011;25333;50.762;4.470;2023-09-07T09:04:46;5.32;;;3.15;;
38972;SDS011;25333;50.762;4.470;2023-09-07T09:07:11;4.53;;;2.70;;
38972;SDS011;25333;50.762;4.470;2023-09-07T09:09:37;4.63;;;3.75;;
38972;SDS011;25333;50.762;4.470;2023-09-07T09:12:09;3.25;;;2.50;;
38972;SDS011;25333;50.762;4.470;2023-09-07T09:14:36;3.53;;;2.60;;
38972;SDS011;25333;50.762;4.470;2023-09-07T09:17:01;6.95;;;3.42;;
38972;SDS011;25333;50.762;4.470;2023-09-07T09:19:31;6.40;;;2.88;;
38972;SDS011;25333;50.762;4.470;2023-09-07T09:21:58;4.07;;;2.92;;
38972;SDS011;25333;50.762;4.470;2023-09-07T09:24:24;4.73;;;2.83;;
38972;SDS011;25333;50.762;4.470;2023-09-07T09:26:50;4.30;;;2.80;;
38972;SDS011;25333;50.762;4.470;2023-09-07T09:29:21;3.95;;;2.70;;
38972;SDS011;25333;50.762;4.470;2023-09-07T09:31:48;4.85;;;2.90;;
38972;SDS011;25333;50.762;4.470;2023-09-07T09:34:14;5.57;;;3.05;;
38972;SDS011;25333;50.762;4.470;2023-09-07T09:36:41;5.38;;;3.35;;
38972;SDS011;25333;50.762;4.470;2023-09-07T09:39:09;4.93;;;2.42;;
38972;SDS011;25333;50.762;4.470;2023-09-07T09:42:06;3.42;;;2.30;;
38972;SDS011;25333;50.762;4.470;2023-09-07T09:44:32;4.32;;;2.63;;
38972;SDS011;25333;50.762;4.470;2023-09-07T09:46:57;5.13;;;3.03;;
38972;SDS011;25333;50.762;4.470;2023-09-07T09:49:45;3.53;;;1.73;;
38972;SDS011;25333;50.762;4.470;2023-09-07T09:52:13;4.43;;;2.70;;
38972;SDS011;25333;50.762;4.470;2023-09-07T09:54:48;4.35;;;2.38;;
38972;SDS011;25333;50.762;4.470;2023-09-07T09:57:20;3.75;;;2.30;;
38972;SDS011;25333;50.762;4.470;2023-09-07T10:00:49;3.85;;;2.13;;
38972;SDS011;25333;50.762;4.470;2023-09-07T10:03:40;5.00;;;2.88;;
38972;SDS011;25333;50.762;4.470;2023-09-07T10:06:11;3.50;;;2.00;;
38972;SDS011;25333;50.762;4.470;2023-09-07T10:09:01;4.70;;;2.78;;
38972;SDS011;25333;50.762;4.470;2023-09-07T10:12:05;3.25;;;1.92;;
38972;SDS011;25333;50.762;4.470;2023-09-07T10:14:41;4.28;;;2.08;;
38972;SDS011;25333;50.762;4.470;2023-09-07T10:17:36;3.35;;;1.90;;
38972;SDS011;25333;50.762;4.470;2023-09-07T10:20:04;3.20;;;1.65;;
38972;SDS011;25333;50.762;4.470;2023-09-07T10:22:37;1.98;;;1.58;;
38972;SDS011;25333;50.762;4.470;2023-09-07T10:25:52;3.45;;;1.90;;
38972;SDS011;25333;50.762;4.470;2023-09-07T10:30:44;4.37;;;1.70;;
38972;SDS011;25333;50.762;4.470;2023-09-07T10:33:27;2.97;;;1.60;;
38972;SDS011;25333;50.762;4.470;2023-09-07T10:36:07;4.88;;;1.90;;
38972;SDS011;25333;50.762;4.470;2023-09-07T10:38:55;3.53;;;1.70;;
38972;SDS011;25333;50.762;4.470;2023-09-07T10:41:21;2.25;;;1.63;;
38972;SDS011;25333;50.762;4.470;2023-09-07T10:43:50;2.38;;;1.40;;
38972;SDS011;25333;50.762;4.470;2023-09-07T10:46:26;2.28;;;1.20;;
38972;SDS011;25333;50.762;4.470;2023-09-07T10:49:08;2.25;;;1.52;;
38972;SDS011;25333;50.762;4.470;2023-09-07T10:51:40;3.55;;;1.63;;
38972;SDS011;25333;50.762;4.470;2023-09-07T10:54:22;4.18;;;1.55;;
38972;SDS011;25333;50.762;4.470;2023-09-07T10:56:51;1.98;;;1.15;;
38972;SDS011;25333;50.762;4.470;2023-09-07T11:02:07;2.72;;;1.45;;
38972;SDS011;25333;50.762;4.470;2023-09-07T11:08:06;2.45;;;1.45;;
38972;SDS011;25333;50.762;4.470;2023-09-07T11:10:39;3.30;;;1.55;;
38972;SDS011;25333;50.762;4.470;2023-09-07T11:13:05;2.67;;;1.20;;
38972;SDS011;25333;50.762;4.470;2023-09-07T11:15:32;2.10;;;1.00;;
38972;SDS011;25333;50.762;4.470;2023-09-07T11:18:04;2.13;;;1.63;;
38972;SDS011;25333;50.762;4.470;2023-09-07T11:20:36;3.20;;;1.40;;
38972;SDS011;25333;50.762;4.470;2023-09-07T11:23:04;4.30;;;1.27;;
38972;SDS011;25333;50.762;4.470;2023-09-07T11:25:38;1.67;;;1.37;;
38972;SDS011;25333;50.762;4.470;2023-09-07T11:28:04;2.67;;;1.48;;
38972;SDS011;25333;50.762;4.470;2023-09-07T11:30:34;2.72;;;1.45;;
38972;SDS011;25333;50.762;4.470;2023-09-07T11:33:06;2.45;;;1.55;;
38972;SDS011;25333;50.762;4.470;2023-09-07T11:35:33;2.53;;;1.27;;
38972;SDS011;25333;50.762;4.470;2023-09-07T11:38:00;1.92;;;1.15;;
38972;SDS011;25333;50.762;4.470;2023-09-07T11:40:26;2.40;;;1.27;;
38972;SDS011;25333;50.762;4.470;2023-09-07T11:42:52;2.97;;;1.07;;
38972;SDS011;25333;50.762;4.470;2023-09-07T11:45:18;2.60;;;1.15;;
38972;SDS011;25333;50.762;4.470;2023-09-07T11:47:44;2.28;;;1.27;;
38972;SDS011;25333;50.762;4.470;2023-09-07T11:50:10;2.67;;;1.20;;
38972;SDS011;25333;50.762;4.470;2023-09-07T11:52:36;2.22;;;1.30;;
38972;SDS011;25333;50.762;4.470;2023-09-07T11:55:02;2.00;;;1.15;;
38972;SDS011;25333;50.762;4.470;2023-09-07T11:57:28;2.38;;;1.17;;
38972;SDS011;25333;50.762;4.470;2023-09-07T11:59:55;2.10;;;1.55;;
38972;SDS011;25333;50.762;4.470;2023-09-07T12:02:20;2.20;;;1.42;;
38972;SDS011;25333;50.762;4.470;2023-09-07T12:04:47;3.57;;;1.63;;
38972;SDS011;25333;50.762;4.470;2023-09-07T12:07:13;2.78;;;1.45;;
38972;SDS011;25333;50.762;4.470;2023-09-07T12:09:39;2.50;;;1.30;;
38972;SDS011;25333;50.762;4.470;2023-09-07T12:12:05;3.90;;;1.63;;
38972;SDS011;25333;50.762;4.470;2023-09-07T12:14:31;2.22;;;1.30;;
38972;SDS011;25333;50.762;4.470;2023-09-07T12:16:57;2.17;;;1.23;;
38972;SDS011;25333;50.762;4.470;2023-09-07T12:19:22;2.93;;;1.70;;
38972;SDS011;25333;50.762;4.470;2023-09-07T12:21:48;2.45;;;1.40;;
38972;SDS011;25333;50.762;4.470;2023-09-07T12:24:14;3.20;;;1.70;;
38972;SDS011;25333;50.762;4.470;2023-09-07T12:26:39;3.00;;;1.13;;
38972;SDS011;25333;50.762;4.470;2023-09-07T12:29:05;2.58;;;1.40;;
38972;SDS011;25333;50.762;4.470;2023-09-07T12:31:32;3.08;;;1.50;;
38972;SDS011;25333;50.762;4.470;2023-09-07T12:33:58;1.88;;;1.00;;
38972;SDS011;25333;50.762;4.470;2023-09-07T12:36:24;3.13;;;1.50;;
38972;SDS011;25333;50.762;4.470;2023-09-07T12:38:49;2.70;;;1.60;;
38972;SDS011;25333;50.762;4.470;2023-09-07T12:41:15;3.83;;;1.92;;
38972;SDS011;25333;50.762;4.470;2023-09-07T12:43:41;2.47;;;1.48;;
38972;SDS011;25333;50.762;4.470;2023-09-07T12:46:09;2.30;;;1.23;;
38972;SDS011;25333;50.762;4.470;2023-09-07T12:48:35;2.77;;;1.40;;
38972;SDS011;25333;50.762;4.470;2023-09-07T12:51:01;2.70;;;1.85;;
38972;SDS011;25333;50.762;4.470;2023-09-07T12:53:26;2.87;;;1.60;;
38972;SDS011;25333;50.762;4.470;2023-09-07T12:55:54;2.92;;;1.58;;
38972;SDS011;25333;50.762;4.470;2023-09-07T12:58:19;3.92;;;1.80;;
38972;SDS011;25333;50.762;4.470;2023-09-07T13:00:45;2.40;;;1.63;;
38972;SDS011;25333;50.762;4.470;2023-09-07T13:03:13;2.05;;;1.30;;
38972;SDS011;25333;50.762;4.470;2023-09-07T13:05:39;3.22;;;1.60;;
38972;SDS011;25333;50.762;4.470;2023-09-07T13:08:05;2.45;;;1.25;;
38972;SDS011;25333;50.762;4.470;2023-09-07T13:10:32;2.00;;;1.50;;
38972;SDS011;25333;50.762;4.470;2023-09-07T13:12:58;3.93;;;1.80;;
38972;SDS011;25333;50.762;4.470;2023-09-07T13:15:24;2.27;;;1.63;;
38972;SDS011;25333;50.762;4.470;2023-09-07T13:17:49;2.40;;;1.60;;
38972;SDS011;25333;50.762;4.470;2023-09-07T13:20:15;2.60;;;2.03;;
38972;SDS011;25333;50.762;4.470;2023-09-07T13:22:41;4.75;;;2.05;;
38972;SDS011;25333;50.762;4.470;2023-09-07T13:25:07;2.93;;;1.47;;
38972;SDS011;25333;50.762;4.470;2023-09-07T13:27:33;4.13;;;1.50;;
38972;SDS011;25333;50.762;4.470;2023-09-07T13:29:59;3.38;;;1.85;;
38972;SDS011;25333;50.762;4.470;2023-09-07T13:32:26;2.43;;;1.70;;
38972;SDS011;25333;50.762;4.470;2023-09-07T13:34:52;2.47;;;1.50;;
38972;SDS011;25333;50.762;4.470;2023-09-07T13:37:18;3.08;;;1.85;;
38972;SDS011;25333;50.762;4.470;2023-09-07T13:39:43;2.50;;;1.27;;
38972;SDS011;25333;50.762;4.470;2023-09-07T13:42:09;2.28;;;1.50;;
38972;SDS011;25333;50.762;4.470;2023-09-07T13:44:35;3.20;;;1.52;;
38972;SDS011;25333;50.762;4.470;2023-09-07T13:47:00;2.93;;;1.87;;
38972;SDS011;25333;50.762;4.470;2023-09-07T13:49:26;3.78;;;1.60;;
38972;SDS011;25333;50.762;4.470;2023-09-07T13:51:52;3.15;;;1.23;;
38972;SDS011;25333;50.762;4.470;2023-09-07T13:54:18;2.10;;;1.50;;
38972;SDS011;25333;50.762;4.470;2023-09-07T13:56:43;2.20;;;1.20;;
38972;SDS011;25333;50.762;4.470;2023-09-07T13:59:10;2.60;;;1.80;;
38972;SDS011;25333;50.762;4.470;2023-09-07T14:01:36;3.35;;;1.85;;
38972;SDS011;25333;50.762;4.470;2023-09-07T14:04:02;2.22;;;1.60;;
38972;SDS011;25333;50.762;4.470;2023-09-07T14:06:28;2.65;;;1.60;;
38972;SDS011;25333;50.762;4.470;2023-09-07T14:08:54;2.20;;;1.20;;
38972;SDS011;25333;50.762;4.470;2023-09-07T14:11:20;3.38;;;1.60;;
38972;SDS011;25333;50.762;4.470;2023-09-07T14:13:47;2.25;;;1.40;;
38972;SDS011;25333;50.762;4.470;2023-09-07T14:16:20;4.50;;;1.20;;
38972;SDS011;25333;50.762;4.470;2023-09-07T14:18:46;1.80;;;1.25;;
38972;SDS011;25333;50.762;4.470;2023-09-07T14:21:15;1.70;;;1.10;;
38972;SDS011;25333;50.762;4.470;2023-09-07T14:23:42;3.25;;;1.42;;
38972;SDS011;25333;50.762;4.470;2023-09-07T14:26:08;2.30;;;1.30;;
38972;SDS011;25333;50.762;4.470;2023-09-07T14:28:34;4.28;;;1.70;;
38972;SDS011;25333;50.762;4.470;2023-09-07T14:31:00;1.95;;;1.20;;
38972;SDS011;25333;50.762;4.470;2023-09-07T14:33:29;3.17;;;1.60;;
38972;SDS011;25333;50.762;4.470;2023-09-07T14:35:55;2.47;;;1.38;;
38972;SDS011;25333;50.762;4.470;2023-09-07T14:38:22;2.97;;;1.27;;
38972;SDS011;25333;50.762;4.470;2023-09-07T14:40:48;2.65;;;1.33;;
38972;SDS011;25333;50.762;4.470;2023-09-07T14:43:15;1.93;;;1.20;;
38972;SDS011;25333;50.762;4.470;2023-09-07T14:45:42;2.47;;;1.30;;
38972;SDS011;25333;50.762;4.470;2023-09-07T14:48:09;2.45;;;1.23;;
38972;SDS011;25333;50.762;4.470;2023-09-07T14:50:35;1.97;;;1.27;;
38972;SDS011;25333;50.762;4.470;2023-09-07T14:53:03;4.57;;;1.63;;
38972;SDS011;25333;50.762;4.470;2023-09-07T14:55:41;2.37;;;1.30;;
38972;SDS011;25333;50.762;4.470;2023-09-07T14:58:09;2.83;;;1.73;;
38972;SDS011;25333;50.762;4.470;2023-09-07T15:00:53;3.13;;;1.80;;
38972;SDS011;25333;50.762;4.470;2023-09-07T15:03:18;3.15;;;1.65;;
38972;SDS011;25333;50.762;4.470;2023-09-07T15:09:18;2.95;;;1.58;;
38972;SDS011;25333;50.762;4.470;2023-09-07T15:11:45;2.42;;;1.50;;
38972;SDS011;25333;50.762;4.470;2023-09-07T15:16:52;2.80;;;1.67;;
38972;SDS011;25333;50.762;4.470;2023-09-07T15:40:21;2.50;;;1.70;;
38972;SDS011;25333;50.762;4.470;2023-09-07T15:58:38;2.42;;;1.80;;
38972;SDS011;25333;50.762;4.470;2023-09-07T16:01:46;2.95;;;1.83;;
38972;SDS011;25333;50.762;4.470;2023-09-07T16:04:35;3.80;;;2.07;;
38972;SDS011;25333;50.762;4.470;2023-09-07T16:09:54;2.78;;;1.77;;
38972;SDS011;25333;50.762;4.470;2023-09-07T16:12:21;3.00;;;1.67;;
38972;SDS011;25333;50.762;4.470;2023-09-07T16:14:48;4.43;;;2.33;;
38972;SDS011;25333;50.762;4.470;2023-09-07T16:20:37;3.22;;;2.40;;
38972;SDS011;25333;50.762;4.470;2023-09-07T16:23:04;3.70;;;2.28;;
38972;SDS011;25333;50.762;4.470;2023-09-07T16:25:50;3.38;;;1.77;;
38972;SDS011;25333;50.762;4.470;2023-09-07T16:28:34;3.05;;;2.00;;
38972;SDS011;25333;50.762;4.470;2023-09-07T16:31:07;3.13;;;1.75;;
38972;SDS011;25333;50.762;4.470;2023-09-07T16:33:33;2.60;;;1.88;;
38972;SDS011;25333;50.762;4.470;2023-09-07T16:36:02;5.60;;;2.55;;
38972;SDS011;25333;50.762;4.470;2023-09-07T16:38:59;3.60;;;2.03;;
38972;SDS011;25333;50.762;4.470;2023-09-07T16:41:33;5.97;;;2.33;;
38972;SDS011;25333;50.762;4.470;2023-09-07T16:47:18;4.00;;;1.95;;
38972;SDS011;25333;50.762;4.470;2023-09-07T16:57:07;2.90;;;1.80;;
38972;SDS011;25333;50.762;4.470;2023-09-07T17:16:11;3.55;;;2.50;;
38972;SDS011;25333;50.762;4.470;2023-09-07T17:19:01;4.32;;;2.50;;
38972;SDS011;25333;50.762;4.470;2023-09-07T17:43:58;4.10;;;2.28;;
38972;SDS011;25333;50.762;4.470;2023-09-07T17:47:25;3.80;;;2.05;;
38972;SDS011;25333;50.762;4.470;2023-09-07T18:31:39;3.67;;;2.45;;
38972;SDS011;25333;50.762;4.470;2023-09-07T20:31:38;4.13;;;2.75;;
38972;SDS011;25333;50.762;4.470;2023-09-07T20:34:04;5.03;;;2.80;;
38972;SDS011;25333;50.762;4.470;2023-09-07T20:36:33;4.00;;;3.00;;
38972;SDS011;25333;50.762;4.470;2023-09-07T20:39:01;4.43;;;3.38;;
38972;SDS011;25333;50.762;4.470;2023-09-07T20:41:26;3.97;;;2.80;;
38972;SDS011;25333;50.762;4.470;2023-09-07T20:43:52;3.80;;;2.45;;
38972;SDS011;25333;50.762;4.470;2023-09-07T20:46:18;3.45;;;2.45;;
38972;SDS011;25333;50.762;4.470;2023-09-07T20:48:45;3.55;;;2.55;;
38972;SDS011;25333;50.762;4.470;2023-09-07T20:51:11;4.60;;;2.97;;
38972;SDS011;25333;50.762;4.470;2023-09-07T20:53:36;3.97;;;2.57;;
38972;SDS011;25333;50.762;4.470;2023-09-07T20:56:02;3.63;;;2.60;;
38972;SDS011;25333;50.762;4.470;2023-09-07T20:58:29;4.00;;;3.20;;
38972;SDS011;25333;50.762;4.470;2023-09-07T21:00:59;4.70;;;3.22;;
38972;SDS011;25333;50.762;4.470;2023-09-07T21:03:27;4.43;;;2.78;;